Aeroporto :
LOGIN :

Iscrizione | Disclaimer

   EN    FR    IT 

 










Sommario :    VFR   VFR Marginale   IFR   IFR Intensivo   IFR Molto Intensivo
Visibilità : 
Base nubi : 
>= 8 km
>= 3000ft
5 / 8 km
1000 / 3000 ft
1500m / 5 km
500 / 1000 ft
800 / 1500m
200 / 500 ft
< 800m
< 200 ft
Simboli :   Temporali  Nebbia  Neve Forte  Precipitazioni Forti  Vento > 20 kt
SIGMETs :   Varie  Temporali  Ghiacco  Turbolenza  Onda orograficha  Ceneri Vulcaniche






- Altitudine del aeroporto : 336 ft
- Codice IATA : GCI


EGJB - Guernsey

ULTIMO METAR :
  • 100520Z 33010KT 310V010 9999 SCT010 13/12 Q1017

METARs OBSOLETI :
  • 100450Z 33012KT 9999 FEW010 SCT020 13/12 Q1017
  • 100420Z 33010KT 9999 FEW010 SCT020 13/12 Q1017
  • 100350Z 33012KT 9999 FEW010 BKN016 13/12 Q1016
  • 100320Z 32012KT 9999 FEW010 BKN015 14/12 Q1016
  • 100250Z 31010KT 9999 FEW010 BKN015 14/12 Q1016

TAF TAF EGJB
Valido dal 10 a 06 ore il 10 a 15 ore UTC


100456Z 1006/1015 33010KT 9999 FEW010 SCT015
PROB30
TEMPO 1006/1008 BKN010
ATIS : +44 1481 238 957



MetMap, La meteo Aeronautica in un colpo d'occhio ! - Copyright ORBIFLY Dicembre 2007 - Disclaimer

ORBIFLY MET'MAP TEAM :

Programmazione e sviluppo : Alexandra Zaïnal
Concezione : Baudouin d'Aumeries
Aiuto per la programmazione : Marc-Olivier Méhu
Supporto tecnico e logistico : Manuel Goepfert
Aiuto per la traduzione : Arnaldo La Scala

Contatto : metmap@orbifly.com




FONTI E CREDITI :

   NOAA